Time;durP1;ratioP1;P1;durP2;ratioP2;P2;SDS_P1;SDS_P2;PMS_P1;PMS_P2;Temp;Humidity;BMP_temperature;BMP_pressure;BME280_temperature;BME280_humidity;BME280_pressure;Samples;Min_cycle;Max_cycle;Signal;HPM_P1;HPM_P2
2022/06/02 00:01:30;;;;;;;10.57;2.27;;;16.30;59.40;;;;;;21075835;28;20238;-64
2022/06/02 00:12:11;;;;;;;4.27;2.10;;;16.10;60.10;;;;;;21076259;28;20210;-72
2022/06/02 00:22:35;;;;;;;4.20;2.17;;;15.90;61.20;;;;;;21009119;28;20211;-74
2022/06/02 00:32:57;;;;;;;7.17;2.50;;;15.70;62.00;;;;;;21004053;28;20239;-70
2022/06/02 00:43:27;;;;;;;3.93;2.20;;;15.60;62.40;;;;;;21005494;28;20207;-64
2022/06/02 00:53:32;;;;;;;3.33;2.40;;;15.40;62.90;;;;;;21004016;28;20235;-61
2022/06/02 01:03:55;;;;;;;2.77;2.10;;;15.10;63.40;;;;;;21003451;28;20203;-67
2022/06/02 01:14:26;;;;;;;2.53;2.20;;;14.90;64.20;;;;;;21002626;28;20246;-64
2022/06/02 01:24:49;;;;;;;4.23;2.20;;;14.60;64.80;;;;;;21000697;28;20234;-60
2022/06/02 01:35:16;;;;;;;4.80;2.30;;;14.30;65.70;;;;;;21000650;28;20290;-70
2022/06/02 01:45:41;;;;;;;4.43;2.40;;;14.10;66.40;;;;;;20999866;28;20232;-61
2022/06/02 01:56:06;;;;;;;5.07;2.10;;;14.00;67.20;;;;;;20999140;28;20288;-61
2022/06/02 02:06:22;;;;;;;2.63;2.30;;;13.80;68.10;;;;;;20998334;28;20332;-61
2022/06/02 02:16:59;;;;;;;2.80;2.13;;;13.70;68.80;;;;;;20997105;28;20244;-62
2022/06/02 02:27:06;;;;;;;3.70;2.37;;;13.70;69.20;;;;;;20994090;28;20237;-64
2022/06/02 02:37:17;;;;;;;6.33;2.50;;;13.60;69.60;;;;;;20978434;28;20300;-60
2022/06/02 02:47:53;;;;;;;3.67;2.50;;;13.50;70.00;;;;;;20996026;28;20206;-60
2022/06/02 02:58:16;;;;;;;3.17;2.50;;;13.40;70.20;;;;;;20984211;28;20288;-59
2022/06/02 03:08:44;;;;;;;2.60;2.40;;;13.40;70.60;;;;;;21010383;28;20616;-60
2022/06/02 03:19:02;;;;;;;2.97;2.57;;;13.30;70.90;;;;;;20994308;28;20697;-60
2022/06/02 03:29:16;;;;;;;4.00;2.77;;;13.20;71.10;;;;;;20994645;28;20234;-61
2022/06/02 03:39:25;;;;;;;4.53;2.40;;;12.90;71.60;;;;;;20993653;28;20287;-61
2022/06/02 03:50:10;;;;;;;4.97;3.30;;;12.70;72.70;;;;;;20996389;28;20211;-60
2022/06/02 04:00:20;;;;;;;10.77;2.80;;;12.70;73.00;;;;;;21008395;28;20235;-60
2022/06/02 04:10:49;;;;;;;6.23;2.87;;;12.60;73.30;;;;;;21008153;28;20211;-73
2022/06/02 04:21:09;;;;;;;11.83;4.40;;;12.70;73.50;;;;;;21021940;28;20300;-71
2022/06/02 04:31:11;;;;;;;2.93;2.60;;;12.60;73.80;;;;;;21087585;28;20291;-70
2022/06/02 04:41:43;;;;;;;8.00;4.27;;;12.70;74.00;;;;;;21089901;28;20655;-70
2022/06/02 04:52:04;;;;;;;9.93;3.57;;;12.70;74.90;;;;;;21087796;28;20255;-70
2022/06/02 05:02:22;;;;;;;5.07;2.97;;;13.00;75.20;;;;;;21087937;28;20237;-72
2022/06/02 05:12:49;;;;;;;8.57;5.70;;;13.30;75.10;;;;;;21086503;28;20309;-61
2022/06/02 05:23:01;;;;;;;8.97;3.87;;;13.50;75.80;;;;;;21084731;28;20210;-61
2022/06/02 05:33:16;;;;;;;5.93;3.87;;;13.80;75.00;;;;;;21083610;28;20241;-61
2022/06/02 05:43:54;;;;;;;10.10;4.20;;;14.00;74.80;;;;;;21083525;28;20205;-62
2022/06/02 05:54:11;;;;;;;6.17;3.80;;;14.20;74.30;;;;;;21080458;28;20260;-68
2022/06/02 06:04:25;;;;;;;8.97;4.20;;;14.00;73.90;;;;;;21081255;28;20205;-62
2022/06/02 06:14:36;;;;;;;12.40;4.80;;;14.10;74.20;;;;;;21078317;28;20297;-65
2022/06/02 06:24:56;;;;;;;10.50;4.27;;;14.40;73.90;;;;;;21075345;28;20230;-63
2022/06/02 06:35:43;;;;;;;7.97;4.30;;;14.70;73.10;;;;;;21076374;28;20233;-61
2022/06/02 06:46:15;;;;;;;15.67;4.77;;;15.00;72.90;;;;;;21054838;28;20213;-65
2022/06/02 06:56:23;;;;;;;9.63;4.00;;;15.30;72.20;;;;;;21077378;28;20666;-68
2022/06/02 07:06:53;;;;;;;8.53;3.80;;;15.60;71.80;;;;;;21076802;28;20667;-66
2022/06/02 07:16:55;;;;;;;3.30;3.00;;;16.10;70.80;;;;;;21047578;28;20295;-69
2022/06/02 07:27:29;;;;;;;4.73;3.07;;;16.40;69.80;;;;;;21083354;28;20261;-69
2022/06/02 07:37:58;;;;;;;13.03;2.80;;;16.70;67.90;;;;;;21091833;28;20302;-68
2022/06/02 07:48:24;;;;;;;3.87;2.40;;;17.00;65.50;;;;;;21092061;28;20656;-69
2022/06/02 07:58:31;;;;;;;5.63;2.90;;;17.30;63.60;;;;;;21091187;28;20241;-67
2022/06/02 08:08:52;;;;;;;2.60;2.40;;;17.50;61.50;;;;;;21090039;28;20239;-64
2022/06/02 08:19:05;;;;;;;4.17;2.73;;;17.70;60.00;;;;;;21089622;28;20241;-65
2022/06/02 08:29:31;;;;;;;4.23;3.70;;;17.90;58.50;;;;;;21006729;28;20245;-63
2022/06/02 08:39:46;;;;;;;3.30;3.00;;;18.00;58.30;;;;;;21003857;28;20273;-61
2022/06/02 08:49:47;;;;;;;4.23;2.90;;;18.30;57.90;;;;;;21002914;28;20207;-64
2022/06/02 09:00:04;;;;;;;2.90;2.60;;;18.50;57.50;;;;;;21002255;28;20276;-62
2022/06/02 09:10:21;;;;;;;2.83;2.23;;;18.60;56.60;;;;;;21001476;28;20672;-62
2022/06/02 09:20:48;;;;;;;6.47;2.90;;;18.80;56.10;;;;;;21016063;28;20700;-62
2022/06/02 09:31:22;;;;;;;3.40;2.07;;;19.10;55.50;;;;;;20999086;28;20299;-63
2022/06/02 09:41:50;;;;;;;2.40;2.00;;;19.50;54.80;;;;;;20999048;28;20696;-61
2022/06/02 09:52:03;;;;;;;2.57;1.97;;;19.60;53.70;;;;;;20974635;28;21257;-61
2022/06/02 10:02:20;;;;;;;2.30;2.10;;;19.80;52.60;;;;;;20997085;28;20561;-61
2022/06/02 10:12:58;;;;;;;61.60;38.43;;;19.80;52.20;;;;;;20996438;28;20267;-65
2022/06/02 10:23:19;;;;;;;4.40;1.90;;;20.10;51.90;;;;;;20994512;28;20215;-62
2022/06/02 10:33:38;;;;;;;3.03;1.90;;;20.10;51.00;;;;;;20991738;28;20230;-61
2022/06/02 10:44:01;;;;;;;8.60;5.77;;;20.10;50.40;;;;;;20994360;28;20959;-62
2022/06/02 10:54:23;;;;;;;2.10;1.80;;;20.10;49.80;;;;;;20993264;28;20238;-62
2022/06/02 11:05:03;;;;;;;6.17;2.10;;;20.40;50.10;;;;;;20992502;28;20217;-65
2022/06/02 11:15:24;;;;;;;2.43;1.87;;;20.50;49.20;;;;;;20993321;28;20229;-66
2022/06/02 11:26:13;;;;;;;2.30;1.80;;;20.70;49.00;;;;;;20992992;28;20789;-65
2022/06/02 11:36:27;;;;;;;1.83;1.40;;;20.70;48.20;;;;;;20990967;28;20558;-65
2022/06/02 11:47:00;;;;;;;2.03;1.43;;;20.80;47.90;;;;;;20997649;28;21662;-68
2022/06/02 11:57:21;;;;;;;2.37;1.60;;;20.70;47.30;;;;;;21069279;28;20321;-62
2022/06/02 12:08:02;;;;;;;2.57;1.50;;;21.00;47.30;;;;;;21074319;28;20711;-62
2022/06/02 12:18:31;;;;;;;1.73;1.50;;;21.20;46.90;;;;;;21089188;28;20230;-63
2022/06/02 12:29:11;;;;;;;5.80;1.50;;;21.60;46.30;;;;;;21024967;28;20721;-68
2022/06/02 12:39:34;;;;;;;3.00;1.47;;;21.80;45.00;;;;;;20953749;28;20231;-71
2022/06/02 12:50:15;;;;;;;2.53;2.10;;;22.10;44.40;;;;;;21018957;28;20203;-70
2022/06/02 13:00:39;;;;;;;1.97;1.73;;;22.00;44.60;;;;;;20998308;28;20272;-65
2022/06/02 13:11:10;;;;;;;2.87;1.70;;;21.90;44.90;;;;;;21000449;28;20210;-64
2022/06/02 13:21:36;;;;;;;2.60;1.20;;;21.70;44.90;;;;;;20971033;28;20238;-69
2022/06/02 13:32:42;;;;;;;3.27;1.50;;;21.60;43.80;;;;;;21032633;28;20295;-70
2022/06/02 13:43:19;;;;;;;7.23;1.97;;;21.60;44.30;;;;;;21072331;28;20231;-62
2022/06/02 14:05:00;;;;;;;3.33;2.30;;;21.80;44.20;;;;;;20997668;28;20199;-62
2022/06/02 14:15:14;;;;;;;3.53;1.63;;;21.90;44.40;;;;;;20997050;28;20630;-66
2022/06/02 14:25:40;;;;;;;1.60;1.50;;;22.10;44.30;;;;;;21057454;28;20249;-67
2022/06/02 14:35:45;;;;;;;2.23;1.60;;;22.50;44.80;;;;;;21079945;28;20622;-67
2022/06/02 14:45:58;;;;;;;2.70;1.97;;;22.50;44.90;;;;;;21081039;28;20205;-74
2022/06/02 14:56:13;;;;;;;3.20;2.07;;;22.70;44.90;;;;;;21078679;28;20237;-63
2022/06/02 15:06:42;;;;;;;5.30;1.83;;;23.00;44.70;;;;;;21077230;28;20202;-74
2022/06/02 15:17:27;;;;;;;2.00;1.73;;;23.00;44.40;;;;;;21077283;28;20573;-70
2022/06/02 15:27:50;;;;;;;5.30;2.10;;;23.10;44.00;;;;;;20996151;28;20280;-73
2022/06/02 15:38:13;;;;;;;3.40;1.57;;;23.00;43.60;;;;;;20993577;28;20235;-73
2022/06/02 15:48:49;;;;;;;1.60;1.50;;;22.80;43.50;;;;;;21000086;28;20223;-72
2022/06/02 15:59:03;;;;;;;2.60;1.40;;;23.00;43.00;;;;;;21008277;28;20246;-75
2022/06/02 16:19:55;;;;;;;4.10;1.37;;;25.40;40.10;;;;;;21006806;28;20236;-73
2022/06/02 16:30:20;;;;;;;1.97;1.30;;;24.80;39.60;;;;;;21006195;28;20231;-66
2022/06/02 16:40:41;;;;;;;5.87;1.23;;;24.00;39.50;;;;;;21005839;28;20234;-64
2022/06/02 16:50:54;;;;;;;1.13;0.90;;;23.40;39.30;;;;;;21004735;28;20207;-70
2022/06/02 17:01:21;;;;;;;1.07;1.00;;;23.10;38.70;;;;;;21003906;28;20292;-69
2022/06/02 17:11:36;;;;;;;2.47;1.30;;;22.90;37.70;;;;;;21003567;28;20203;-67
2022/06/02 17:22:03;;;;;;;1.30;1.10;;;22.80;36.70;;;;;;21033353;28;20230;-67
2022/06/02 17:32:13;;;;;;;3.80;1.23;;;23.60;36.10;;;;;;21084340;28;20716;-74
2022/06/02 17:42:35;;;;;;;1.20;1.10;;;23.30;35.80;;;;;;21083942;28;20302;-74
2022/06/02 17:52:51;;;;;;;1.63;1.13;;;23.50;35.10;;;;;;21083447;28;20222;-64
2022/06/02 18:03:17;;;;;;;7.73;1.10;;;24.10;34.70;;;;;;21080711;28;20234;-75
2022/06/02 18:13:43;;;;;;;1.77;1.17;;;23.30;35.00;;;;;;21080441;28;20206;-69
2022/06/02 18:23:56;;;;;;;3.87;1.00;;;22.80;35.70;;;;;;21080184;28;20264;-71
2022/06/02 18:33:58;;;;;;;1.43;1.13;;;22.40;36.40;;;;;;21079688;28;20226;-68
2022/06/02 18:44:09;;;;;;;2.17;1.60;;;22.10;37.00;;;;;;21076632;28;20198;-68
2022/06/02 18:54:25;;;;;;;4.43;1.43;;;21.80;37.50;;;;;;21058313;28;20697;-72
2022/06/02 19:04:27;;;;;;;1.20;1.10;;;21.60;38.80;;;;;;21076640;28;20682;-70
2022/06/02 19:14:48;;;;;;;2.27;1.80;;;21.30;40.20;;;;;;21078439;28;20226;-63
2022/06/02 19:25:08;;;;;;;4.43;1.53;;;21.10;41.00;;;;;;21088982;28;20257;-78
2022/06/02 19:35:10;;;;;;;3.90;1.50;;;20.90;42.40;;;;;;21095026;28;20229;-68
2022/06/02 19:45:27;;;;;;;2.93;1.60;;;20.60;44.70;;;;;;21095203;28;20561;-74
2022/06/02 19:55:40;;;;;;;2.73;1.90;;;20.20;45.90;;;;;;21093515;28;20228;-75
2022/06/02 20:05:54;;;;;;;3.97;1.80;;;19.80;47.10;;;;;;21092317;28;20238;-68
2022/06/02 20:16:00;;;;;;;5.50;2.47;;;19.50;47.90;;;;;;21091487;28;20706;-73
2022/06/02 20:26:08;;;;;;;3.90;1.80;;;19.20;48.70;;;;;;21090881;28;20246;-73
2022/06/02 20:36:20;;;;;;;2.10;1.60;;;19.00;49.00;;;;;;21089435;28;20226;-72
2022/06/02 20:46:42;;;;;;;3.80;1.70;;;18.80;49.70;;;;;;21090380;28;20547;-67
2022/06/02 20:56:46;;;;;;;6.90;1.80;;;18.60;50.10;;;;;;21081104;28;20295;-63
2022/06/02 21:07:01;;;;;;;1.77;1.50;;;18.40;50.60;;;;;;21085635;28;20208;-65
2022/06/02 21:17:37;;;;;;;4.43;1.70;;;18.20;51.30;;;;;;21086705;28;20230;-67
2022/06/02 21:27:39;;;;;;;1.60;1.50;;;18.00;51.80;;;;;;21084625;28;20744;-63
2022/06/02 21:37:49;;;;;;;2.00;1.80;;;17.80;52.40;;;;;;21085035;28;20256;-62
2022/06/02 21:47:54;;;;;;;2.60;1.30;;;17.70;53.00;;;;;;21083332;28;20215;-68
2022/06/02 21:58:09;;;;;;;2.10;1.70;;;17.60;53.40;;;;;;21083250;28;20233;-63
2022/06/02 22:08:22;;;;;;;1.73;1.50;;;17.40;53.70;;;;;;21082689;28;20205;-67
2022/06/02 22:18:26;;;;;;;2.73;1.70;;;17.30;54.10;;;;;;21068719;28;20581;-63
2022/06/02 22:28:43;;;;;;;1.80;1.57;;;17.20;54.70;;;;;;21077945;28;20244;-69
2022/06/02 22:39:09;;;;;;;3.40;1.60;;;17.10;55.20;;;;;;21080771;28;20325;-63
2022/06/02 22:49:56;;;;;;;2.93;1.77;;;16.90;55.50;;;;;;21079836;28;20200;-72
2022/06/02 23:00:20;;;;;;;2.70;1.93;;;17.00;56.00;;;;;;21063438;28;20248;-67
2022/06/02 23:10:48;;;;;;;3.43;2.07;;;16.70;56.70;;;;;;21079134;28;20205;-65
2022/06/02 23:21:06;;;;;;;2.60;1.70;;;16.70;57.20;;;;;;21077856;28;20233;-70
2022/06/02 23:31:20;;;;;;;3.43;2.40;;;16.70;57.50;;;;;;21077602;28;20282;-64
2022/06/02 23:53:01;;;;;;;3.97;2.10;;;16.50;58.20;;;;;;21077291;28;20686;-69
